Time;durP1;ratioP1;P1;durP2;ratioP2;P2;SDS_P1;SDS_P2;PMS_P1;PMS_P2;Temp;Humidity;BMP_temperature;BMP_pressure;BME280_temperature;BME280_humidity;BME280_pressure;Samples;Min_cycle;Max_cycle;Signal;HPM_P1;HPM_P2
2023/05/28 00:01:01;;;;;;;7.33;6.37;;;12.40;99.90;;;-141.84;55.87;20250.81;5069547;28;20197;-68
2023/05/28 00:03:31;;;;;;;7.47;6.50;;;12.30;99.90;;;-141.84;55.97;20254.88;5071202;28;20219;-67
2023/05/28 00:06:00;;;;;;;9.57;6.83;;;12.30;99.90;;;-141.84;56.22;20260.97;5071621;28;20595;-68
2023/05/28 00:08:28;;;;;;;7.40;6.60;;;12.30;99.90;;;-141.84;56.00;20256.91;5070819;28;20228;-69
2023/05/28 00:10:59;;;;;;;6.77;6.07;;;12.30;99.90;;;-141.84;56.11;20260.97;5071660;28;20232;-68
2023/05/28 00:13:28;;;;;;;7.83;6.00;;;12.20;99.90;;;-141.84;56.23;20244.72;5071477;28;20189;-68
2023/05/28 00:15:57;;;;;;;8.23;6.77;;;12.20;99.90;;;-141.84;56.54;20212.19;5070691;28;20703;-68
2023/05/28 00:18:28;;;;;;;9.03;6.50;;;12.20;99.90;;;-141.84;56.32;20238.63;5071198;28;20605;-69
2023/05/28 00:20:57;;;;;;;7.57;6.07;;;12.10;99.90;;;-141.84;56.39;20279.28;5070699;28;20585;-67
2023/05/28 00:23:25;;;;;;;10.03;5.87;;;12.20;99.90;;;-141.84;56.10;20265.03;5071116;28;20254;-68
2023/05/28 00:25:54;;;;;;;8.30;6.37;;;12.20;99.90;;;-141.84;56.67;20226.44;5071006;28;20246;-68
2023/05/28 00:28:22;;;;;;;8.30;5.83;;;12.10;99.90;;;-141.84;56.44;20263.00;5070738;28;20684;-68
2023/05/28 00:30:50;;;;;;;8.00;6.40;;;12.10;99.90;;;-141.84;56.46;20265.03;5070264;28;20628;-68
2023/05/28 00:33:19;;;;;;;7.13;6.10;;;12.10;99.90;;;-141.84;56.80;20236.59;5081209;28;20251;-69
2023/05/28 00:35:47;;;;;;;7.13;5.80;;;12.10;99.90;;;-141.84;57.26;20193.91;5070837;28;20201;-68
2023/05/28 00:38:16;;;;;;;6.77;6.03;;;12.00;99.90;;;-141.84;57.34;20206.09;5070422;28;20689;-68
2023/05/28 00:40:45;;;;;;;8.43;6.10;;;11.90;99.90;;;-141.84;57.35;20224.41;5070582;28;20243;-69
2023/05/28 00:43:13;;;;;;;8.87;5.97;;;11.90;99.90;;;-141.84;57.40;20210.16;5056538;28;20225;-69
2023/05/28 00:45:41;;;;;;;7.60;6.33;;;11.90;99.90;;;-141.84;57.45;20236.59;5051098;28;20293;-69
2023/05/28 00:48:10;;;;;;;6.43;5.80;;;11.90;99.90;;;-141.84;57.92;20185.78;5050671;28;20266;-68
2023/05/28 00:50:40;;;;;;;8.63;6.00;;;11.90;99.90;;;-141.84;58.14;20204.06;5050733;28;20205;-68
2023/05/28 00:53:10;;;;;;;9.23;5.70;;;11.80;99.90;;;-141.84;58.09;20214.22;5050388;28;20279;-68
2023/05/28 00:55:40;;;;;;;9.40;5.93;;;11.80;99.90;;;-141.84;58.63;20179.69;5050680;28;20288;-68
2023/05/28 00:58:08;;;;;;;7.90;5.50;;;11.80;99.90;;;-141.84;58.74;20175.63;5050535;28;20367;-68
2023/05/28 01:00:42;;;;;;;6.97;5.60;;;11.70;99.90;;;-141.84;58.96;20153.25;5050229;28;20255;-68
2023/05/28 01:03:11;;;;;;;7.40;5.80;;;11.60;99.90;;;-141.84;58.74;20169.53;5069879;28;20694;-68
2023/05/28 01:05:39;;;;;;;7.03;5.70;;;11.60;99.90;;;-141.84;59.15;20175.63;5071215;28;20266;-68
2023/05/28 01:08:09;;;;;;;6.53;5.70;;;11.60;99.90;;;-141.84;59.27;20165.44;5060249;28;20632;-68
2023/05/28 01:10:39;;;;;;;7.73;5.80;;;11.60;99.90;;;-141.84;59.56;20169.53;5051280;28;20669;-67
2023/05/28 01:13:09;;;;;;;7.70;5.93;;;11.50;99.90;;;-141.84;60.06;20147.16;5051653;28;20237;-69
2023/05/28 01:15:37;;;;;;;7.00;5.80;;;11.50;99.90;;;-141.84;60.64;20137.00;5051131;28;20206;-68
2023/05/28 01:18:08;;;;;;;6.43;5.53;;;11.50;99.90;;;-141.84;61.38;20128.88;5051185;28;20233;-69
2023/05/28 01:20:36;;;;;;;7.33;6.00;;;11.30;99.90;;;-141.84;60.93;20141.06;5051364;28;20193;-69
2023/05/28 01:23:11;;;;;;;7.97;6.07;;;11.30;99.90;;;-141.84;60.77;20145.13;5051351;28;20221;-68
2023/05/28 01:25:44;;;;;;;8.27;6.13;;;11.40;99.90;;;-141.84;60.75;20130.91;5051147;28;20185;-68
2023/05/28 01:28:13;;;;;;;9.20;6.90;;;11.30;99.90;;;-141.84;60.65;20134.97;5051397;28;20546;-69
2023/05/28 01:30:43;;;;;;;9.07;6.87;;;11.40;99.90;;;-141.84;61.56;20124.81;5050918;28;20685;-68
2023/05/28 01:33:12;;;;;;;6.83;5.80;;;11.30;99.90;;;-141.84;61.77;20114.63;5070882;28;20888;-68
2023/05/28 01:35:41;;;;;;;8.90;6.43;;;11.20;99.90;;;-141.84;61.76;20096.34;5070988;28;20232;-69
2023/05/28 01:38:11;;;;;;;9.17;6.27;;;11.20;99.90;;;-141.84;61.48;20118.69;5069472;28;20207;-68
2023/05/28 01:40:46;;;;;;;9.77;6.57;;;11.20;99.90;;;-141.84;61.88;20118.69;5051371;28;20269;-69
2023/05/28 01:43:15;;;;;;;8.60;6.00;;;11.20;99.90;;;-141.84;62.39;20098.38;5051191;28;20209;-68
2023/05/28 01:45:44;;;;;;;9.27;6.33;;;11.20;99.90;;;-141.84;62.72;20100.41;5050583;28;20285;-67
2023/05/28 01:48:13;;;;;;;8.57;6.63;;;11.10;99.90;;;-141.84;62.10;20139.03;5050915;28;20347;-68
2023/05/28 01:50:41;;;;;;;7.77;6.03;;;11.10;99.90;;;-141.84;61.99;20143.09;5050971;28;20235;-68
2023/05/28 01:53:09;;;;;;;7.77;6.00;;;11.10;99.90;;;-141.84;62.58;20094.31;5051086;28;20248;-69
2023/05/28 01:55:37;;;;;;;8.30;6.27;;;11.10;99.90;;;-141.84;62.56;20114.63;5051136;28;20289;-67
2023/05/28 01:58:08;;;;;;;11.97;6.63;;;11.10;99.90;;;-141.84;62.67;20086.19;5051269;28;20288;-67
2023/05/28 02:00:46;;;;;;;7.97;6.50;;;11.10;99.90;;;-141.84;63.02;20090.25;5050125;28;20238;-68
2023/05/28 02:03:15;;;;;;;8.57;6.47;;;11.10;99.90;;;-141.84;63.73;20065.84;5071019;28;20209;-68
2023/05/28 02:05:43;;;;;;;7.23;6.10;;;11.00;99.90;;;-141.84;64.12;20080.09;5070746;28;20205;-68
2023/05/28 02:08:11;;;;;;;9.17;6.50;;;11.00;99.90;;;-141.84;64.15;20047.56;5059246;28;20206;-68
2023/05/28 02:10:39;;;;;;;8.37;6.93;;;11.00;99.90;;;-141.84;64.30;20100.41;5050933;28;20289;-68
2023/05/28 02:13:09;;;;;;;7.03;5.90;;;10.90;99.90;;;-141.84;64.85;20053.66;5051020;28;20243;-68
2023/05/28 02:15:37;;;;;;;8.40;7.00;;;10.90;99.90;;;-141.84;65.22;20049.59;5052095;28;20224;-68
2023/05/28 02:18:05;;;;;;;9.47;6.70;;;10.90;99.90;;;-141.84;64.70;20084.16;5054749;28;20202;-68
2023/05/28 02:20:34;;;;;;;9.50;6.33;;;10.90;99.90;;;-141.84;64.53;20053.66;5054415;28;20202;-69
2023/05/28 02:23:02;;;;;;;7.30;6.40;;;10.90;99.90;;;-141.84;64.28;20061.78;5054122;28;20217;-68
2023/05/28 02:25:30;;;;;;;8.27;6.63;;;10.90;99.90;;;-141.84;64.14;20069.94;5054305;28;20292;-68
2023/05/28 02:27:59;;;;;;;8.03;6.57;;;10.90;99.90;;;-141.84;63.76;20082.13;5054199;28;20205;-68
2023/05/28 02:30:28;;;;;;;10.00;6.70;;;10.90;99.90;;;-141.84;63.49;20090.25;5060550;28;20699;-68
2023/05/28 02:32:56;;;;;;;8.00;6.50;;;10.90;99.90;;;-141.84;63.39;20061.78;5074085;28;20311;-69
2023/05/28 02:35:25;;;;;;;7.90;6.50;;;11.00;99.90;;;-141.84;63.16;20074.00;5064062;28;20650;-68
2023/05/28 02:37:53;;;;;;;7.47;5.87;;;10.90;99.90;;;-141.84;62.76;20074.00;5054316;28;20288;-68
2023/05/28 02:40:22;;;;;;;7.87;6.27;;;11.00;99.90;;;-141.84;63.00;20076.03;5053992;28;20257;-68
2023/05/28 02:42:50;;;;;;;8.13;6.40;;;10.90;99.90;;;-141.84;63.57;20082.13;5054134;28;20244;-68
2023/05/28 02:45:19;;;;;;;10.97;6.07;;;10.90;99.90;;;-141.84;63.91;20029.28;5054502;28;20240;-69
2023/05/28 02:47:49;;;;;;;9.13;6.17;;;10.80;99.90;;;-141.84;64.43;20053.66;5053795;28;20657;-68
2023/05/28 02:50:17;;;;;;;6.80;5.93;;;10.70;99.90;;;-141.84;64.70;20013.00;5053790;28;20208;-69
2023/05/28 02:52:45;;;;;;;7.60;6.07;;;10.70;99.90;;;-141.84;64.68;20045.53;5053988;28;20255;-68
2023/05/28 02:55:13;;;;;;;8.27;5.50;;;10.70;99.90;;;-141.84;64.27;20041.47;5053779;28;20229;-68
2023/05/28 02:57:41;;;;;;;7.97;5.77;;;10.70;99.90;;;-141.84;64.14;20021.16;5053805;28;20232;-68
2023/05/28 03:00:12;;;;;;;6.93;5.73;;;10.70;99.90;;;-141.84;64.34;20057.72;5053380;28;20201;-68
2023/05/28 03:02:40;;;;;;;8.10;5.43;;;10.60;99.90;;;-141.84;64.68;20025.22;5073675;28;20216;-68
2023/05/28 03:05:10;;;;;;;9.17;5.63;;;10.60;99.90;;;-141.84;64.78;20027.25;5073854;28;20205;-71
2023/05/28 03:07:38;;;;;;;8.00;5.27;;;10.70;99.90;;;-141.84;65.06;20033.34;5066211;28;20237;-69
2023/05/28 03:10:07;;;;;;;8.37;5.40;;;10.60;99.90;;;-141.84;64.75;20021.16;5053742;28;20239;-68
2023/05/28 03:12:36;;;;;;;7.27;5.33;;;10.60;99.90;;;-141.84;64.18;20045.53;5053897;28;20292;-68
2023/05/28 03:15:05;;;;;;;8.17;5.83;;;10.70;99.90;;;-141.84;64.29;20045.53;5053777;28;20209;-67
2023/05/28 03:17:33;;;;;;;7.47;5.93;;;10.70;99.90;;;-141.84;64.03;20047.56;5053699;28;20202;-69
2023/05/28 03:20:02;;;;;;;6.90;5.20;;;10.70;99.90;;;-141.84;64.25;20035.38;5053673;28;20213;-68
2023/05/28 03:22:31;;;;;;;7.43;5.90;;;10.80;99.90;;;-141.84;64.22;20076.03;5053614;28;20206;-68
2023/05/28 03:24:59;;;;;;;8.33;5.77;;;10.80;99.90;;;-141.84;64.46;20039.44;5053611;28;20225;-67
2023/05/28 03:27:28;;;;;;;6.80;5.83;;;10.70;99.90;;;-141.84;64.50;20057.72;5052773;28;20232;-69
2023/05/28 03:29:56;;;;;;;6.47;5.13;;;10.70;99.90;;;-141.84;64.53;20015.03;5055861;28;20580;-68
2023/05/28 03:32:24;;;;;;;7.27;5.60;;;10.80;99.90;;;-141.84;63.94;20049.59;5058433;28;20304;-69
2023/05/28 03:34:52;;;;;;;10.50;6.03;;;10.70;99.90;;;-141.84;64.09;20102.44;5073647;28;20184;-69
2023/05/28 03:37:21;;;;;;;7.77;5.60;;;10.80;99.90;;;-141.84;63.46;20057.72;5073352;28;20748;-67
2023/05/28 03:39:51;;;;;;;7.63;5.40;;;10.80;99.90;;;-141.84;63.43;20061.78;5073224;28;20295;-68
2023/05/28 03:42:19;;;;;;;6.07;5.20;;;10.90;99.90;;;-141.84;63.61;20065.84;5071122;28;20513;-69
2023/05/28 03:44:48;;;;;;;7.17;5.17;;;10.90;99.90;;;-141.84;63.76;20074.00;5072816;28;20252;-68
2023/05/28 03:47:16;;;;;;;9.20;5.87;;;10.90;99.90;;;-141.84;64.06;20039.44;5073144;28;20209;-68
2023/05/28 03:49:45;;;;;;;8.40;5.60;;;10.90;99.90;;;-141.84;64.22;20067.88;5073235;28;20236;-68
2023/05/28 03:52:13;;;;;;;10.60;5.70;;;10.90;99.90;;;-141.84;63.63;20057.72;5073298;28;20240;-69
2023/05/28 03:54:41;;;;;;;6.87;5.50;;;11.00;99.90;;;-141.84;63.78;20090.25;5073274;28;20259;-68
2023/05/28 03:57:10;;;;;;;7.10;5.27;;;10.90;99.90;;;-141.84;63.63;20092.28;5073210;28;20287;-69
2023/05/28 03:59:39;;;;;;;8.20;5.97;;;11.00;99.90;;;-141.84;63.39;20098.38;5072009;28;20205;-68
2023/05/28 04:02:07;;;;;;;7.30;5.37;;;11.10;99.90;;;-141.84;63.34;20082.13;5052445;28;20673;-67
2023/05/28 04:04:35;;;;;;;7.70;5.67;;;11.10;99.90;;;-141.84;63.27;20096.34;5052817;28;20225;-68
2023/05/28 04:07:04;;;;;;;8.20;5.60;;;11.20;99.90;;;-141.84;63.21;20078.06;5055021;28;20213;-69
2023/05/28 04:09:32;;;;;;;6.53;5.50;;;11.20;99.90;;;-141.84;63.21;20122.78;5072758;28;20224;-68
2023/05/28 04:12:00;;;;;;;9.03;5.57;;;11.30;99.90;;;-141.84;62.72;20108.53;5072436;28;20205;-68
2023/05/28 04:14:30;;;;;;;8.17;5.50;;;11.30;99.90;;;-141.84;62.49;20147.16;5072437;28;20246;-68
2023/05/28 04:16:58;;;;;;;8.93;5.50;;;11.40;99.90;;;-141.84;61.65;20181.72;5072540;28;20300;-69
2023/05/28 04:19:26;;;;;;;7.90;5.60;;;11.50;99.90;;;-141.84;61.62;20169.53;5072364;28;20258;-69
2023/05/28 04:21:54;;;;;;;11.13;5.93;;;11.60;99.90;;;-141.84;61.58;20173.59;5072520;28;20204;-69
2023/05/28 04:24:23;;;;;;;8.20;5.27;;;11.70;99.90;;;-141.84;61.13;20183.75;5072482;28;20281;-69
2023/05/28 04:26:51;;;;;;;9.47;5.00;;;11.80;99.90;;;-141.84;61.47;20208.13;5072447;28;20200;-69
2023/05/28 04:29:23;;;;;;;8.43;5.40;;;11.90;99.90;;;-141.84;61.45;20202.03;5072092;28;20247;-69
2023/05/28 04:31:52;;;;;;;7.57;5.20;;;11.90;99.90;;;-141.84;60.96;20230.50;5053136;28;20205;-69
2023/05/28 04:34:21;;;;;;;6.60;5.07;;;12.20;99.90;;;-141.84;60.74;20191.88;5051924;28;20302;-68
2023/05/28 04:36:51;;;;;;;7.47;5.00;;;12.00;99.90;;;-141.84;59.94;20248.78;5052107;28;20320;-67
2023/05/28 04:39:20;;;;;;;7.47;5.43;;;12.20;99.90;;;-141.84;59.22;20269.13;5072220;28;20209;-69
2023/05/28 04:41:49;;;;;;;6.53;5.03;;;12.20;99.90;;;-141.84;59.41;20277.25;5072376;28;20287;-69
2023/05/28 04:44:17;;;;;;;8.10;5.27;;;12.30;99.90;;;-141.84;58.96;20256.91;5072055;28;20303;-68
2023/05/28 04:46:46;;;;;;;7.30;5.67;;;12.40;99.90;;;-141.84;58.26;20277.25;5072521;28;20258;-68
2023/05/28 04:49:15;;;;;;;8.73;5.60;;;12.50;99.90;;;-141.84;58.40;20324.00;5072250;28;20255;-69
2023/05/28 04:51:44;;;;;;;10.00;5.53;;;12.60;99.90;;;-141.84;56.09;20547.59;5071807;28;20257;-67
2023/05/28 04:54:12;;;;;;;7.03;5.35;;;13.40;99.90;;;-141.84;51.19;20836.25;5071972;28;20231;-69
2023/05/28 04:56:40;;;;;;;6.95;5.40;;;14.70;99.90;;;-141.84;47.01;21137.13;5071705;28;20553;-68
2023/05/28 04:59:09;;;;;;;7.82;5.20;;;16.00;99.90;;;-141.84;43.40;21397.38;5071707;28;20258;-68
2023/05/28 05:01:38;;;;;;;7.90;5.20;;;17.10;99.90;;;-141.84;41.39;21604.75;5054172;28;20283;-68
2023/05/28 05:04:08;;;;;;;7.38;5.68;;;18.20;99.90;;;-141.84;39.27;21850.78;5051484;28;20622;-68
2023/05/28 05:06:37;;;;;;;7.15;5.40;;;18.90;99.90;;;-141.84;38.26;22009.41;5051811;28;20244;-70
2023/05/28 05:09:06;;;;;;;7.63;5.40;;;19.60;99.90;;;-141.84;36.75;22147.69;5070800;28;20303;-68
2023/05/28 05:11:34;;;;;;;7.32;5.50;;;20.10;99.90;;;-141.84;36.05;22227.00;5071524;28;20297;-68
2023/05/28 05:14:03;;;;;;;6.60;5.13;;;20.50;99.90;;;-141.84;35.63;22330.72;5071492;28;20203;-69
2023/05/28 05:16:31;;;;;;;7.45;5.72;;;20.70;99.90;;;-141.84;35.47;22371.38;5071165;28;20670;-68
2023/05/28 05:19:00;;;;;;;7.60;5.68;;;20.90;99.90;;;-141.84;35.75;22277.84;5071511;28;20201;-68
2023/05/28 05:21:28;;;;;;;6.00;5.32;;;20.90;99.90;;;-141.84;35.89;22318.50;5071670;28;20285;-68
2023/05/28 05:23:57;;;;;;;7.63;5.60;;;21.20;99.90;;;-141.84;35.04;22283.94;5071319;28;20236;-68
2023/05/28 05:26:25;;;;;;;8.57;5.65;;;21.40;99.90;;;-141.84;35.12;22281.91;5071317;28;20714;-69
2023/05/28 05:28:54;;;;;;;9.95;5.75;;;21.30;99.90;;;-141.84;36.88;22123.28;5071421;28;20224;-69
2023/05/28 05:31:22;;;;;;;8.18;5.85;;;20.60;99.90;;;-141.84;37.59;21940.25;5056185;28;20292;-68
2023/05/28 05:33:50;;;;;;;10.25;6.50;;;19.80;99.90;;;-141.84;39.01;21702.34;5056604;28;20274;-68
2023/05/28 05:36:18;;;;;;;9.48;6.28;;;19.20;99.90;;;-141.84;41.44;21482.75;5071401;28;20589;-69
2023/05/28 05:38:47;;;;;;;7.78;5.70;;;18.60;99.90;;;-141.84;42.15;21381.09;5071269;28;20235;-68
2023/05/28 05:41:17;;;;;;;8.85;5.88;;;18.40;99.90;;;-141.84;42.75;21297.75;5071132;28;20270;-68
2023/05/28 05:43:45;;;;;;;7.80;5.82;;;18.00;99.90;;;-141.84;43.68;21218.44;5070891;28;20284;-68
2023/05/28 05:46:13;;;;;;;9.20;6.05;;;17.90;99.90;;;-141.84;44.95;21129.00;5071039;28;20251;-69
2023/05/28 05:48:42;;;;;;;7.85;5.88;;;17.50;99.90;;;-141.84;45.82;21084.28;5071357;28;20332;-68
2023/05/28 05:51:16;;;;;;;9.00;5.53;;;17.30;99.90;;;-141.84;46.43;21059.88;5073903;28;20273;-68
2023/05/28 05:53:45;;;;;;;6.45;5.32;;;17.20;99.90;;;-141.84;46.77;21035.47;5074362;28;20185;-67
2023/05/28 05:56:13;;;;;;;8.52;5.72;;;17.10;99.90;;;-141.84;46.76;21045.63;5074662;28;20246;-70
2023/05/28 05:58:42;;;;;;;10.15;5.85;;;17.20;99.90;;;-141.84;47.29;21045.63;5074500;28;20279;-68
2023/05/28 06:01:11;;;;;;;7.15;5.00;;;17.20;99.90;;;-141.84;46.79;21021.25;5061121;28;20557;-68
2023/05/28 06:03:39;;;;;;;7.55;5.70;;;17.30;99.90;;;-141.84;46.86;21021.25;5054356;28;20661;-70
2023/05/28 06:06:07;;;;;;;7.25;5.20;;;17.20;99.90;;;-141.84;46.68;21078.16;5054353;28;20221;-70
2023/05/28 06:08:36;;;;;;;6.95;4.90;;;17.30;99.90;;;-141.84;46.73;21053.78;5069029;28;20204;-69
2023/05/28 06:11:04;;;;;;;5.50;4.72;;;17.40;99.90;;;-141.84;46.40;21092.41;5074457;28;20605;-68
2023/05/28 06:13:33;;;;;;;8.40;4.70;;;17.40;99.90;;;-141.84;46.35;21110.69;5074430;28;20283;-70
2023/05/28 06:16:04;;;;;;;7.60;4.97;;;17.60;99.90;;;-141.84;45.95;21133.06;5074182;28;20295;-68
2023/05/28 06:18:32;;;;;;;7.40;4.85;;;17.80;99.90;;;-141.84;45.87;21147.28;5074118;28;20564;-70
2023/05/28 06:21:01;;;;;;;8.32;4.20;;;17.90;99.90;;;-141.84;45.08;21163.56;5072968;28;20239;-69
2023/05/28 06:23:29;;;;;;;9.50;5.18;;;18.00;99.90;;;-141.84;45.22;21173.72;5073695;28;20283;-69
2023/05/28 06:25:57;;;;;;;10.60;4.57;;;18.00;99.90;;;-141.84;44.34;21238.78;5073210;28;20286;-69
2023/05/28 06:28:25;;;;;;;8.07;4.68;;;18.10;99.90;;;-141.84;44.47;21177.78;5073390;28;20313;-69
2023/05/28 06:30:53;;;;;;;7.03;4.40;;;18.10;99.90;;;-141.84;44.31;21183.88;5072932;28;20240;-68
2023/05/28 06:33:23;;;;;;;6.68;4.30;;;18.10;99.90;;;-141.84;44.67;21175.75;5073141;28;20643;-69
2023/05/28 06:35:51;;;;;;;7.47;4.70;;;18.00;99.90;;;-141.84;44.90;21165.59;5073217;28;20639;-69
2023/05/28 06:38:21;;;;;;;8.65;5.10;;;17.90;99.90;;;-141.84;44.99;21163.56;5073009;28;20208;-69
2023/05/28 06:40:49;;;;;;;9.45;4.40;;;17.90;99.90;;;-141.84;45.30;21187.97;5072931;28;20200;-68
2023/05/28 06:43:17;;;;;;;6.45;4.82;;;17.90;99.90;;;-141.84;45.00;21185.91;5072902;28;20201;-69
2023/05/28 06:45:45;;;;;;;9.68;5.00;;;17.90;99.90;;;-141.84;45.50;21173.72;5072223;28;20213;-68
2023/05/28 06:48:13;;;;;;;6.95;4.55;;;18.00;99.90;;;-141.84;44.97;21200.16;5074074;28;20257;-69
2023/05/28 06:50:43;;;;;;;9.30;5.00;;;18.10;99.90;;;-141.84;45.02;21151.34;5073511;28;20665;-70
2023/05/28 06:53:11;;;;;;;7.55;4.63;;;17.90;99.90;;;-141.84;44.80;21206.25;5073333;28;20557;-69
2023/05/28 06:55:39;;;;;;;9.18;5.07;;;17.90;99.90;;;-141.84;44.74;21212.34;5072733;28;20250;-69
2023/05/28 06:58:11;;;;;;;9.15;5.22;;;18.00;99.90;;;-141.84;44.44;21187.97;5072765;28;20582;-69
2023/05/28 07:00:39;;;;;;;5.65;4.40;;;18.00;99.90;;;-141.84;45.11;21220.47;5072922;28;20327;-69
2023/05/28 07:03:08;;;;;;;10.13;4.75;;;18.00;99.90;;;-141.84;45.03;21214.38;5072470;28;20239;-68
2023/05/28 07:05:36;;;;;;;9.80;4.68;;;18.00;99.90;;;-141.84;45.61;21218.44;5073606;28;20252;-68
2023/05/28 07:08:07;;;;;;;6.32;4.22;;;18.00;99.90;;;-141.84;45.62;21240.81;5072809;28;20227;-69
2023/05/28 07:10:35;;;;;;;7.45;4.88;;;18.20;99.90;;;-141.84;44.73;21283.50;5072537;28;20241;-69
2023/05/28 07:13:03;;;;;;;8.05;5.05;;;18.30;99.90;;;-141.84;44.13;21248.94;5072649;28;20204;-69
2023/05/28 07:15:31;;;;;;;6.57;4.20;;;18.30;99.90;;;-141.84;44.42;21248.94;5072396;28;20279;-69
2023/05/28 07:18:00;;;;;;;6.80;4.60;;;18.40;99.90;;;-141.84;43.47;21279.44;5072603;28;20236;-68
2023/05/28 07:20:29;;;;;;;7.82;4.65;;;18.40;99.90;;;-141.84;43.97;21293.69;5072382;28;20209;-68
2023/05/28 07:22:57;;;;;;;7.38;4.97;;;18.30;99.90;;;-141.84;43.85;21246.91;5072065;28;20693;-68
2023/05/28 07:25:27;;;;;;;6.63;3.90;;;18.30;99.90;;;-141.84;43.83;21277.41;5071782;28;20220;-67
2023/05/28 07:27:55;;;;;;;7.28;4.57;;;18.40;99.90;;;-141.84;43.86;21202.19;5072205;28;20201;-68
2023/05/28 07:30:23;;;;;;;7.78;4.30;;;18.20;99.90;;;-141.84;43.54;21228.63;5065325;28;20240;-68
2023/05/28 07:32:51;;;;;;;6.55;3.83;;;18.20;99.90;;;-141.84;43.78;21242.84;5051839;28;20583;-69
2023/05/28 07:35:19;;;;;;;4.82;4.07;;;18.20;99.90;;;-141.84;44.17;21307.91;5052077;28;20205;-68
2023/05/28 07:37:47;;;;;;;7.78;4.22;;;18.30;99.90;;;-141.84;43.96;21269.28;5051653;28;20595;-68
2023/05/28 07:40:16;;;;;;;7.80;4.63;;;18.40;99.90;;;-141.84;44.04;21277.41;5051904;28;20647;-68
2023/05/28 07:42:45;;;;;;;6.82;4.13;;;18.40;99.90;;;-141.84;43.42;21340.44;5061752;28;20255;-68
2023/05/28 07:45:17;;;;;;;8.00;4.82;;;18.60;99.90;;;-141.84;43.65;21291.66;5071441;28;20196;-68
2023/05/28 07:47:45;;;;;;;8.68;4.85;;;18.50;99.90;;;-141.84;44.31;21269.28;5071714;28;20396;-68
2023/05/28 07:50:15;;;;;;;6.53;4.38;;;18.50;99.90;;;-141.84;44.57;21281.47;5071837;28;20232;-69
2023/05/28 07:52:43;;;;;;;6.55;4.03;;;18.40;99.90;;;-141.84;44.24;21265.22;5072350;28;20236;-68
2023/05/28 07:55:12;;;;;;;8.63;4.43;;;18.40;99.90;;;-141.84;43.62;21273.34;5071646;28;20243;-68
2023/05/28 07:57:40;;;;;;;8.52;4.40;;;18.40;99.90;;;-141.84;44.10;21273.34;5071829;28;20228;-69
2023/05/28 08:00:15;;;;;;;8.35;4.47;;;18.50;99.90;;;-141.84;43.86;21287.56;5069546;28;20291;-67
2023/05/28 08:02:44;;;;;;;6.30;3.97;;;18.50;99.90;;;-141.84;43.12;21320.09;5071144;28;20641;-68
2023/05/28 08:05:16;;;;;;;5.25;3.83;;;18.50;99.90;;;-141.84;43.35;21332.31;5070845;28;20193;-68
2023/05/28 08:07:44;;;;;;;7.50;4.30;;;18.60;99.90;;;-141.84;42.95;21364.84;5071204;28;20216;-67
2023/05/28 08:10:13;;;;;;;6.80;3.97;;;18.60;99.90;;;-141.84;42.94;21277.41;5071325;28;20239;-68
2023/05/28 08:12:41;;;;;;;6.85;3.85;;;18.50;99.90;;;-141.84;41.80;21303.84;5071137;28;20334;-68
2023/05/28 08:15:11;;;;;;;5.60;3.60;;;18.50;99.90;;;-141.84;42.02;21289.59;5071072;28;20205;-67
2023/05/28 08:17:39;;;;;;;7.13;3.97;;;18.50;99.90;;;-141.84;42.16;21324.19;5071543;28;20296;-67
2023/05/28 08:20:11;;;;;;;5.97;4.10;;;18.60;99.90;;;-141.84;41.89;21354.66;5071543;28;20248;-67
2023/05/28 08:22:40;;;;;;;6.25;3.90;;;18.70;99.90;;;-141.84;41.53;21358.75;5067881;28;20200;-68
2023/05/28 08:25:09;;;;;;;7.05;3.40;;;18.70;99.90;;;-141.84;41.39;21320.09;5067690;28;20705;-68
2023/05/28 08:27:37;;;;;;;7.85;4.28;;;18.70;99.90;;;-141.84;41.75;21383.13;5069372;28;20217;-69
2023/05/28 08:30:08;;;;;;;7.32;4.15;;;18.80;99.90;;;-141.84;41.79;21348.56;5069801;28;20624;-67
2023/05/28 08:32:37;;;;;;;5.93;4.00;;;18.80;99.90;;;-141.84;41.14;21375.00;5070498;28;20260;-69
2023/05/28 08:35:06;;;;;;;4.38;3.20;;;18.90;99.90;;;-141.84;39.83;21442.09;5070772;28;20193;-67
2023/05/28 08:37:34;;;;;;;4.82;3.50;;;19.00;99.90;;;-141.84;40.02;21395.34;5064981;28;20254;-69
2023/05/28 08:40:05;;;;;;;7.07;3.90;;;19.00;99.90;;;-141.84;40.94;21360.78;5069777;28;20200;-67
2023/05/28 08:42:33;;;;;;;5.07;3.25;;;19.00;99.90;;;-141.84;39.90;21419.72;5068739;28;20196;-67
2023/05/28 08:45:01;;;;;;;5.45;3.17;;;19.00;99.90;;;-141.84;38.58;21397.38;5070081;28;20201;-67
2023/05/28 08:47:33;;;;;;;6.80;3.35;;;19.00;99.90;;;-141.84;38.42;21413.63;5069205;28;20304;-67
2023/05/28 08:50:07;;;;;;;5.93;3.28;;;19.00;99.90;;;-141.84;39.16;21425.84;5070816;28;20193;-67
2023/05/28 08:52:36;;;;;;;5.53;3.90;;;19.00;99.90;;;-141.84;37.68;21423.81;5068237;28;20200;-67
2023/05/28 08:55:06;;;;;;;4.90;3.58;;;19.00;99.90;;;-141.84;38.27;21444.13;5070138;28;20528;-69
2023/05/28 08:57:35;;;;;;;5.40;3.20;;;19.10;99.90;;;-141.84;37.85;21429.91;5064057;28;20742;-68
2023/05/28 09:00:07;;;;;;;6.43;3.65;;;19.10;99.90;;;-141.84;37.82;21486.81;5066599;28;20201;-67
2023/05/28 09:02:36;;;;;;;7.32;3.47;;;19.20;99.90;;;-141.84;38.29;21456.34;5069654;28;20383;-68
2023/05/28 09:05:07;;;;;;;7.28;3.33;;;19.20;99.90;;;-141.84;38.49;21456.34;5070432;28;20671;-67
2023/05/28 09:07:35;;;;;;;4.10;3.25;;;19.20;99.90;;;-141.84;37.88;21456.34;5070228;28;20244;-67
2023/05/28 09:10:04;;;;;;;6.35;3.50;;;19.30;99.90;;;-141.84;38.10;21460.41;5070618;28;20215;-69
2023/05/28 09:12:32;;;;;;;5.55;3.55;;;19.30;99.90;;;-141.84;38.20;21448.19;5070534;28;20224;-67
2023/05/28 09:15:00;;;;;;;6.47;3.42;;;19.20;99.90;;;-141.84;38.40;21476.66;5068843;28;20288;-68
2023/05/28 09:17:39;;;;;;;8.00;3.58;;;19.30;99.90;;;-141.84;37.32;21472.59;5070243;28;20228;-68
2023/05/28 09:20:13;;;;;;;5.15;3.65;;;19.40;99.90;;;-141.84;37.67;21513.25;5070445;28;20197;-67
2023/05/28 09:22:42;;;;;;;7.25;3.40;;;19.40;99.90;;;-141.84;37.59;21497.00;5070489;28;20660;-66
2023/05/28 09:25:10;;;;;;;5.22;3.13;;;19.40;99.90;;;-141.84;36.45;21537.66;5069811;28;20711;-66
2023/05/28 09:27:39;;;;;;;3.92;2.75;;;19.40;99.90;;;-141.84;37.50;21507.16;5070516;28;20586;-68
2023/05/28 09:30:09;;;;;;;6.28;3.10;;;19.40;99.90;;;-141.84;37.75;21460.41;5065601;28;20205;-67
2023/05/28 09:32:37;;;;;;;4.35;3.55;;;19.40;99.90;;;-141.84;37.23;21519.34;5049896;28;20261;-67
2023/05/28 09:35:07;;;;;;;6.00;3.30;;;19.50;99.90;;;-141.84;36.73;21553.94;5050211;28;20469;-67
2023/05/28 09:37:37;;;;;;;4.68;3.17;;;19.60;99.90;;;-141.84;37.00;21547.81;5050027;28;20232;-69
2023/05/28 09:40:09;;;;;;;5.00;3.30;;;19.60;99.90;;;-141.84;35.66;21590.53;5050192;28;20201;-67
2023/05/28 09:42:42;;;;;;;4.60;3.03;;;19.70;99.90;;;-141.84;36.16;21582.38;5059236;28;20254;-67
2023/05/28 09:45:12;;;;;;;4.45;3.17;;;19.80;99.90;;;-141.84;36.64;21596.63;5070116;28;20236;-68
2023/05/28 09:47:44;;;;;;;6.38;3.22;;;19.80;99.90;;;-141.84;36.03;21604.75;5070092;28;20647;-67
2023/05/28 09:50:13;;;;;;;5.03;3.38;;;19.90;99.90;;;-141.84;36.20;21604.75;5070097;28;20660;-67
2023/05/28 09:52:45;;;;;;;6.88;3.55;;;19.80;99.90;;;-141.84;36.13;21580.34;5069795;28;20210;-68
2023/05/28 09:55:18;;;;;;;8.43;3.90;;;19.80;99.90;;;-141.84;36.12;21606.78;5070585;28;20277;-69
2023/05/28 09:57:54;;;;;;;5.22;3.47;;;19.80;99.90;;;-141.84;35.87;21584.44;5070057;28;20196;-68
2023/05/28 10:00:31;;;;;;;5.03;3.10;;;19.90;99.90;;;-141.84;35.79;21623.06;5063344;28;20681;-67
2023/05/28 10:03:17;;;;;;;5.30;3.38;;;19.90;99.90;;;-141.84;35.45;21643.38;5050176;28;20243;-68
2023/05/28 10:05:52;;;;;;;7.05;3.55;;;20.00;99.90;;;-141.84;35.67;21651.53;5050274;28;20193;-68
2023/05/28 10:08:24;;;;;;;6.75;3.00;;;20.00;99.90;;;-141.84;35.31;21682.03;5063020;28;20224;-68
2023/05/28 10:10:55;;;;;;;6.78;3.28;;;20.10;99.90;;;-141.84;35.56;21673.88;5070008;28;20572;-69
2023/05/28 10:13:24;;;;;;;4.45;3.17;;;20.20;99.90;;;-141.84;35.02;21696.25;5069552;28;20225;-68